createdAt,value
2023-04-02T00:05:39.882Z,7.74
2023-04-02T00:15:40.244Z,7.75
2023-04-02T00:25:40.243Z,7.79
2023-04-02T00:35:40.468Z,7.60
2023-04-02T00:45:40.663Z,7.53
2023-04-02T00:55:40.783Z,7.53
2023-04-02T01:05:40.991Z,7.55
2023-04-02T01:15:41.267Z,7.57
2023-04-02T01:25:41.452Z,7.49
2023-04-02T01:35:41.690Z,7.32
2023-04-02T01:45:41.884Z,7.42
2023-04-02T01:55:42.067Z,7.27
2023-04-02T02:05:42.274Z,7.24
2023-04-02T02:15:42.470Z,7.05
2023-04-02T02:25:42.709Z,6.94
2023-04-02T02:35:42.940Z,7.05
2023-04-02T02:45:43.177Z,7.40
2023-04-02T02:55:43.330Z,7.39
2023-04-02T03:05:43.546Z,7.25
2023-04-02T03:15:43.755Z,7.17
2023-04-02T03:25:43.950Z,7.12
2023-04-02T03:35:44.191Z,6.80
2023-04-02T03:45:44.360Z,6.85
2023-04-02T03:55:44.571Z,6.98
2023-04-02T04:05:44.765Z,7.05
2023-04-02T04:15:44.973Z,7.24
2023-04-02T04:25:45.184Z,7.30
2023-04-02T04:35:45.477Z,7.24
2023-04-02T04:45:45.700Z,7.25
2023-04-02T04:55:45.929Z,6.97
2023-04-02T05:05:45.939Z,6.85
2023-04-02T05:15:46.158Z,6.84
2023-04-02T05:25:46.420Z,6.95
2023-04-02T05:35:46.463Z,7.27
2023-04-02T05:45:46.631Z,7.31
2023-04-02T05:55:46.855Z,7.10
2023-04-02T06:05:47.046Z,7.27
2023-04-02T06:15:47.879Z,7.34
2023-04-02T06:25:47.344Z,7.49
2023-04-02T06:35:47.590Z,7.77
2023-04-02T06:45:47.825Z,8.07
2023-04-02T06:55:48.042Z,8.33
2023-04-02T07:05:48.224Z,8.41
2023-04-02T07:15:48.463Z,8.34
2023-04-02T07:25:48.586Z,8.34
2023-04-02T07:35:48.829Z,8.25
2023-04-02T07:45:49.025Z,8.37
2023-04-02T07:55:49.223Z,8.96
2023-04-02T08:05:49.421Z,9.66
2023-04-02T08:15:49.659Z,10.30
2023-04-02T08:25:49.855Z,11.02
2023-04-02T08:35:50.084Z,11.67
2023-04-02T08:45:50.694Z,12.47
2023-04-02T08:55:50.447Z,12.87
2023-04-02T09:05:50.641Z,13.42
2023-04-02T09:15:50.921Z,14.58
2023-04-02T09:26:02.932Z,14.68
2023-04-02T09:35:52.500Z,13.87
2023-04-02T09:45:51.516Z,13.85
2023-04-02T09:55:51.722Z,14.42
2023-04-02T10:05:51.905Z,14.65
2023-04-02T10:15:52.106Z,15.87
2023-04-02T10:25:52.322Z,16.76
2023-04-02T10:35:52.560Z,16.75
2023-04-02T10:45:52.797Z,17.82
2023-04-02T10:55:52.979Z,16.88
2023-04-02T11:05:53.189Z,15.82
2023-04-02T11:15:53.396Z,15.65
2023-04-02T11:25:53.577Z,15.54
2023-04-02T11:35:53.777Z,15.03
2023-04-02T11:45:54.388Z,15.16
2023-04-02T11:55:54.234Z,14.64
2023-04-02T12:05:54.436Z,14.95
2023-04-02T12:15:54.665Z,14.78
2023-04-02T12:25:54.870Z,15.62
2023-04-02T12:35:55.186Z,14.98
2023-04-02T12:45:55.272Z,14.81
2023-04-02T12:55:55.489Z,14.68
2023-04-02T13:05:55.545Z,15.10
2023-04-02T13:15:55.823Z,15.19
2023-04-02T13:25:56.057Z,15.31
2023-04-02T13:35:56.170Z,15.29
2023-04-02T13:45:56.532Z,15.92
2023-04-02T13:55:56.577Z,14.94
2023-04-02T14:05:56.754Z,14.20
2023-04-02T14:15:56.948Z,14.27
2023-04-02T14:25:57.347Z,14.27
2023-04-02T14:35:57.244Z,14.14
2023-04-02T14:45:57.479Z,14.20
2023-04-02T14:55:57.914Z,14.06
2023-04-02T15:05:57.942Z,14.96
2023-04-02T15:15:58.252Z,14.65
2023-04-02T15:25:58.154Z,14.25
2023-04-02T15:35:59.253Z,14.92
2023-04-02T15:45:58.773Z,15.17
2023-04-02T15:55:58.633Z,15.16
2023-04-02T16:05:59.052Z,14.61
2023-04-02T16:15:58.942Z,14.37
2023-04-02T16:25:59.236Z,14.02
2023-04-02T16:35:59.568Z,13.69
2023-04-02T16:45:59.559Z,13.71
2023-04-02T16:55:59.785Z,13.54
2023-04-02T17:05:59.896Z,13.59
2023-04-02T17:16:00.024Z,13.29
2023-04-02T17:25:59.895Z,13.01
2023-04-02T17:36:00.463Z,12.71
2023-04-02T17:46:00.539Z,12.39
2023-04-02T17:56:02.380Z,12.16
2023-04-02T18:06:00.767Z,11.86
2023-04-02T18:16:00.874Z,11.61
2023-04-02T18:26:00.748Z,11.27
2023-04-02T18:36:01.885Z,11.04
2023-04-02T18:46:01.155Z,11.07
2023-04-02T18:56:01.618Z,11.02
2023-04-02T19:06:01.952Z,10.76
2023-04-02T19:16:01.995Z,10.61
2023-04-02T19:26:02.210Z,10.45
2023-04-02T19:36:02.469Z,10.33
2023-04-02T19:46:02.634Z,10.17
2023-04-02T19:56:02.527Z,10.20
2023-04-02T20:06:03.031Z,10.11
2023-04-02T20:16:03.204Z,9.99
2023-04-02T20:26:03.418Z,9.99
2023-04-02T20:36:03.568Z,9.94
2023-04-02T20:46:03.443Z,9.84
2023-04-02T20:56:03.633Z,9.81
2023-04-02T21:06:03.853Z,9.61
2023-04-02T21:16:04.067Z,9.60
2023-04-02T21:26:04.261Z,9.46
2023-04-02T21:36:04.466Z,9.36
2023-04-02T21:46:04.650Z,9.18
2023-04-02T21:56:04.852Z,9.10
2023-04-02T22:06:05.064Z,8.77
2023-04-02T22:16:06.854Z,8.70
2023-04-02T22:26:05.502Z,8.59
2023-04-02T22:36:05.699Z,8.58
2023-04-02T22:46:05.926Z,8.50
2023-04-02T22:56:06.084Z,8.36
2023-04-02T23:06:06.279Z,8.23
2023-04-02T23:16:06.542Z,8.15
2023-04-02T23:26:06.737Z,8.04
2023-04-02T23:36:07.030Z,8.04
2023-04-02T23:46:07.053Z,8.05
2023-04-02T23:56:07.274Z,7.87
